You are listening to:
KORD App (10R/28C) - Chicago, Illinois, United States

KORD 231416Z 29009G17KT 10SM FEW026 OVC033 23/19 A2975 RMK AO2 T02330194 $

If stream doesn't start automatically press the play button
If stream stops then reload player then press play